Time;durP1;ratioP1;P1;durP2;ratioP2;P2;SDS_P1;SDS_P2;PMS_P1;PMS_P2;Temp;Humidity;BMP_temperature;BMP_pressure;BME280_temperature;BME280_humidity;BME280_pressure;Samples;Min_cycle;Max_cycle;Signal;HPM_P1;HPM_P2
2022/10/04 00:00:40;;;;;;;17.38;7.85;;;12.30;99.90;;;;;;4971365;28;20050;-82
2022/10/04 00:03:17;;;;;;;15.40;8.02;;;12.30;99.90;;;;;;4975047;28;20058;-82
2022/10/04 00:05:53;;;;;;;16.70;8.80;;;12.30;99.90;;;;;;4961954;28;21578;-82
2022/10/04 00:08:34;;;;;;;13.57;8.20;;;12.30;99.90;;;;;;4974604;28;20046;-82
2022/10/04 00:11:13;;;;;;;12.95;7.68;;;12.30;99.90;;;;;;4954450;28;20436;-82
2022/10/04 00:13:46;;;;;;;17.95;8.70;;;12.20;99.90;;;;;;4959029;28;20121;-82
2022/10/04 00:16:24;;;;;;;14.75;8.73;;;12.30;99.90;;;;;;4973510;28;20512;-82
2022/10/04 00:19:22;;;;;;;18.92;8.30;;;12.30;99.90;;;;;;4974764;28;20176;-82
2022/10/04 00:21:55;;;;;;;15.93;8.57;;;12.30;99.90;;;;;;4946999;28;20062;-82
2022/10/04 00:24:31;;;;;;;17.13;8.35;;;12.30;99.90;;;;;;4971434;28;20080;-82
2022/10/04 00:27:22;;;;;;;18.50;8.80;;;12.20;99.90;;;;;;4960192;28;20166;-82
2022/10/04 00:30:03;;;;;;;17.95;9.02;;;12.30;99.90;;;;;;4971341;28;20046;-82
2022/10/04 00:33:01;;;;;;;16.73;8.80;;;12.20;99.90;;;;;;4990173;28;20108;-82
2022/10/04 00:35:27;;;;;;;15.23;7.70;;;12.20;99.90;;;;;;4966030;28;20121;-82
2022/10/04 00:38:13;;;;;;;17.30;8.73;;;12.20;99.90;;;;;;4956689;28;20544;-82
2022/10/04 00:40:53;;;;;;;18.77;8.90;;;12.20;99.90;;;;;;4954831;28;20045;-82
2022/10/04 00:43:33;;;;;;;16.88;8.65;;;12.20;99.90;;;;;;4958462;28;20050;-82
2022/10/04 00:46:09;;;;;;;14.80;8.80;;;12.20;99.90;;;;;;4956482;28;20092;-82
2022/10/04 00:48:53;;;;;;;20.50;9.48;;;12.20;99.90;;;;;;4973785;28;20137;-82
2022/10/04 00:51:54;;;;;;;20.90;9.68;;;12.20;99.90;;;;;;4975413;28;20053;-82
2022/10/04 00:54:33;;;;;;;17.42;8.65;;;12.20;99.90;;;;;;4939793;28;20101;-82
2022/10/04 00:57:09;;;;;;;13.15;8.27;;;12.20;99.90;;;;;;4958410;28;20042;-82
2022/10/04 00:59:41;;;;;;;13.80;8.45;;;12.20;99.90;;;;;;4975887;28;20105;-82
2022/10/04 01:02:19;;;;;;;14.63;7.93;;;12.20;99.90;;;;;;4956472;28;20074;-82
2022/10/04 01:05:02;;;;;;;18.15;8.90;;;12.20;99.90;;;;;;4956365;28;20085;-82
2022/10/04 01:07:37;;;;;;;14.93;8.90;;;12.20;99.90;;;;;;4973868;28;20042;-82
2022/10/04 01:10:27;;;;;;;18.20;8.30;;;12.20;99.90;;;;;;4960965;28;20130;-83
2022/10/04 01:13:14;;;;;;;16.30;8.98;;;12.10;99.90;;;;;;4969466;28;20038;-82
2022/10/04 01:15:58;;;;;;;19.20;8.13;;;12.10;99.90;;;;;;4972597;28;20045;-82
2022/10/04 01:18:24;;;;;;;16.55;8.10;;;12.20;99.90;;;;;;4972598;28;20046;-82
2022/10/04 01:21:20;;;;;;;16.10;8.40;;;12.10;99.90;;;;;;4958535;28;20046;-82
2022/10/04 01:23:48;;;;;;;16.70;8.23;;;12.10;99.90;;;;;;4973668;28;20061;-82
2022/10/04 01:26:28;;;;;;;19.52;8.43;;;12.10;99.90;;;;;;4957970;28;20054;-82
2022/10/04 01:28:55;;;;;;;15.75;8.82;;;12.10;99.90;;;;;;4971158;28;20039;-82
2022/10/04 01:31:21;;;;;;;18.77;8.45;;;12.10;99.90;;;;;;4974512;28;20045;-83
2022/10/04 01:33:47;;;;;;;13.60;7.70;;;12.10;99.90;;;;;;4954603;28;20121;-83
2022/10/04 01:36:13;;;;;;;14.40;8.35;;;12.10;99.90;;;;;;4956136;28;20030;-83
2022/10/04 01:38:38;;;;;;;19.25;8.43;;;12.10;99.90;;;;;;4957535;28;20044;-82
2022/10/04 01:41:06;;;;;;;17.00;8.00;;;12.10;99.90;;;;;;4973913;28;20065;-84
2022/10/04 01:43:36;;;;;;;15.27;8.48;;;12.10;99.90;;;;;;4969910;28;20049;-83
2022/10/04 01:46:18;;;;;;;20.00;9.13;;;12.10;99.90;;;;;;4968539;28;20065;-83
2022/10/04 01:48:46;;;;;;;20.10;9.93;;;12.10;99.90;;;;;;4957748;28;20046;-83
2022/10/04 01:51:23;;;;;;;21.70;10.18;;;12.10;99.90;;;;;;4973753;28;20293;-82
2022/10/04 01:53:55;;;;;;;23.52;9.85;;;12.10;99.90;;;;;;4956977;28;20121;-82
2022/10/04 01:56:26;;;;;;;18.42;10.65;;;12.10;99.90;;;;;;4959332;28;20046;-82
2022/10/04 01:58:58;;;;;;;18.08;10.05;;;12.10;99.90;;;;;;4953681;28;20078;-83
2022/10/04 02:01:33;;;;;;;20.23;10.80;;;12.10;99.90;;;;;;4973563;28;20050;-83
2022/10/04 02:04:03;;;;;;;15.95;8.95;;;12.10;99.90;;;;;;4955882;28;20038;-82
2022/10/04 02:06:36;;;;;;;18.48;9.60;;;12.00;99.90;;;;;;4955836;28;20508;-83
2022/10/04 02:09:12;;;;;;;17.02;9.68;;;12.00;99.90;;;;;;4970577;28;20047;-82
2022/10/04 02:11:40;;;;;;;16.85;9.52;;;12.00;99.90;;;;;;4971410;28;20066;-83
2022/10/04 02:14:19;;;;;;;18.38;9.55;;;12.00;99.90;;;;;;4969686;28;20116;-82
2022/10/04 02:16:46;;;;;;;24.30;10.50;;;12.00;99.90;;;;;;4988814;28;20683;-83
2022/10/04 02:19:14;;;;;;;20.17;10.13;;;12.00;99.90;;;;;;4973128;28;20081;-83
2022/10/04 02:21:40;;;;;;;16.88;10.10;;;12.00;99.90;;;;;;4958873;28;20069;-83
2022/10/04 02:24:08;;;;;;;16.45;9.07;;;12.00;99.90;;;;;;4954273;28;20046;-83
2022/10/04 02:26:33;;;;;;;19.13;9.13;;;12.00;99.90;;;;;;4958172;28;20050;-83
2022/10/04 02:28:59;;;;;;;15.88;8.63;;;11.90;99.90;;;;;;4971753;28;20053;-82
2022/10/04 02:34:11;;;;;;;19.20;8.60;;;11.90;99.90;;;;;;4973053;28;20038;-83
2022/10/04 02:36:38;;;;;;;17.50;9.00;;;11.80;99.90;;;;;;5003560;28;20073;-83
2022/10/04 02:39:06;;;;;;;15.05;8.73;;;11.80;99.90;;;;;;4969618;28;20047;-83
2022/10/04 02:41:41;;;;;;;16.30;8.88;;;11.70;99.90;;;;;;4973671;28;20691;-82
2022/10/04 02:44:31;;;;;;;12.60;8.25;;;11.60;99.90;;;;;;4954093;28;20049;-83
2022/10/04 02:47:33;;;;;;;19.25;9.05;;;11.60;99.90;;;;;;4974209;28;20046;-82
2022/10/04 02:50:15;;;;;;;19.07;9.40;;;11.50;99.90;;;;;;4941787;28;20057;-82
2022/10/04 02:52:47;;;;;;;15.18;8.65;;;11.50;99.90;;;;;;4970853;28;20516;-83
2022/10/04 02:55:23;;;;;;;21.75;8.60;;;11.40;99.90;;;;;;4969885;28;20042;-83
2022/10/04 02:57:51;;;;;;;17.60;8.82;;;11.40;99.90;;;;;;4968342;28;20121;-82
2022/10/04 03:00:21;;;;;;;21.30;9.13;;;11.30;99.90;;;;;;4957165;28;20133;-82
2022/10/04 03:03:16;;;;;;;17.83;8.75;;;11.30;99.90;;;;;;4954309;28;20046;-82
2022/10/04 03:06:11;;;;;;;15.38;7.97;;;11.20;99.90;;;;;;4932621;28;20052;-82
2022/10/04 03:08:42;;;;;;;18.05;8.45;;;11.20;99.90;;;;;;4970107;28;20053;-83
2022/10/04 03:11:10;;;;;;;16.55;7.80;;;11.10;99.90;;;;;;4973368;28;20038;-82
2022/10/04 03:13:40;;;;;;;13.45;8.13;;;11.10;99.90;;;;;;4969399;28;20042;-83
2022/10/04 03:16:07;;;;;;;17.63;8.32;;;11.10;99.90;;;;;;4970885;28;20104;-82
2022/10/04 03:18:34;;;;;;;18.15;8.35;;;11.10;99.90;;;;;;4957130;28;20445;-82
2022/10/04 03:21:03;;;;;;;14.43;8.25;;;11.00;99.90;;;;;;4963382;28;20092;-82
2022/10/04 03:23:32;;;;;;;16.63;7.88;;;11.00;99.90;;;;;;4955861;28;20111;-82
2022/10/04 03:26:15;;;;;;;20.15;7.53;;;10.90;99.90;;;;;;4955300;28;20039;-83
2022/10/04 03:28:40;;;;;;;15.50;7.32;;;10.90;99.90;;;;;;4967325;28;20038;-82
2022/10/04 03:31:06;;;;;;;17.48;7.10;;;10.90;99.90;;;;;;4954581;28;20193;-83
2022/10/04 03:33:32;;;;;;;15.32;7.40;;;10.90;99.90;;;;;;4971518;28;20137;-82
2022/10/04 03:35:59;;;;;;;15.88;8.40;;;10.80;99.90;;;;;;4971855;28;20035;-83
2022/10/04 03:38:27;;;;;;;18.33;8.63;;;10.80;99.90;;;;;;4969863;28;20042;-83
2022/10/04 03:40:58;;;;;;;16.75;8.65;;;10.80;99.90;;;;;;4970056;28;20074;-82
2022/10/04 03:43:30;;;;;;;15.98;8.40;;;10.80;99.90;;;;;;4956219;28;20034;-83
2022/10/04 03:45:58;;;;;;;17.10;8.15;;;10.70;99.90;;;;;;4954957;28;20092;-83
2022/10/04 03:48:29;;;;;;;22.55;9.20;;;10.70;99.90;;;;;;4954458;28;20073;-83
2022/10/04 03:50:55;;;;;;;16.05;8.50;;;10.70;99.90;;;;;;4972792;28;20050;-83
2022/10/04 03:53:29;;;;;;;16.48;8.32;;;10.70;99.90;;;;;;4955498;28;20047;-82
2022/10/04 03:55:55;;;;;;;16.27;8.68;;;10.60;99.90;;;;;;4969531;28;20043;-82
2022/10/04 03:58:24;;;;;;;16.90;8.70;;;10.60;99.90;;;;;;4977161;28;20034;-82
2022/10/04 04:01:04;;;;;;;17.02;9.30;;;10.60;99.90;;;;;;4956481;28;20061;-82
2022/10/04 04:03:40;;;;;;;17.35;9.05;;;10.50;99.90;;;;;;4970360;28;20043;-82
2022/10/04 04:06:13;;;;;;;18.08;9.95;;;10.50;99.90;;;;;;4973737;28;20048;-82
2022/10/04 04:08:43;;;;;;;16.42;9.25;;;10.50;99.90;;;;;;4973213;28;20042;-82
2022/10/04 04:11:17;;;;;;;15.93;9.57;;;10.50;99.90;;;;;;4985460;28;20035;-83
2022/10/04 04:14:11;;;;;;;23.20;10.10;;;10.40;99.90;;;;;;4970189;28;20050;-82
2022/10/04 04:16:37;;;;;;;22.42;10.63;;;10.40;99.90;;;;;;4954810;28;20089;-82
2022/10/04 04:19:12;;;;;;;18.90;10.30;;;10.30;99.90;;;;;;4975027;28;20443;-82
2022/10/04 04:21:37;;;;;;;18.50;10.05;;;10.30;99.90;;;;;;4967980;28;20501;-82
2022/10/04 04:24:08;;;;;;;19.77;11.45;;;10.30;99.90;;;;;;4955549;28;20039;-82
2022/10/04 04:26:38;;;;;;;20.42;11.18;;;10.30;99.90;;;;;;4955889;28;20073;-82
2022/10/04 04:29:10;;;;;;;23.70;9.73;;;10.30;99.90;;;;;;4986881;28;20046;-82
2022/10/04 04:31:49;;;;;;;20.92;10.48;;;10.20;99.90;;;;;;4955785;28;20034;-83
2022/10/04 04:34:31;;;;;;;19.80;9.80;;;10.20;99.90;;;;;;4975843;28;20050;-83
2022/10/04 04:36:59;;;;;;;14.18;9.35;;;10.20;99.90;;;;;;4958904;28;20981;-82
2022/10/04 04:39:36;;;;;;;18.15;9.02;;;10.20;99.90;;;;;;4973735;28;20085;-82
2022/10/04 04:42:09;;;;;;;19.25;9.15;;;10.20;99.90;;;;;;4968940;28;20050;-84
2022/10/04 04:44:37;;;;;;;16.08;9.32;;;10.20;99.90;;;;;;4968391;28;20038;-83
2022/10/04 04:47:26;;;;;;;15.00;9.23;;;10.10;99.90;;;;;;4972113;28;20046;-83
2022/10/04 04:49:52;;;;;;;18.63;9.82;;;10.10;99.90;;;;;;4957457;28;20070;-83
2022/10/04 04:52:24;;;;;;;16.98;10.30;;;10.10;99.90;;;;;;4957314;28;20038;-83
2022/10/04 04:54:51;;;;;;;18.52;10.82;;;10.10;99.90;;;;;;4956950;28;20049;-83
2022/10/04 04:57:16;;;;;;;15.32;10.63;;;10.10;99.90;;;;;;4970844;28;20121;-83
2022/10/04 04:59:47;;;;;;;30.05;14.18;;;10.00;99.90;;;;;;4973782;28;20124;-83
2022/10/04 05:02:27;;;;;;;26.13;14.98;;;10.00;99.90;;;;;;4973530;28;20073;-83
2022/10/04 05:05:20;;;;;;;25.73;14.40;;;10.10;99.90;;;;;;4958539;28;20101;-83
2022/10/04 05:07:46;;;;;;;25.40;14.80;;;10.10;99.90;;;;;;4958724;28;20049;-83
2022/10/04 05:10:31;;;;;;;23.70;16.20;;;10.10;99.90;;;;;;4971403;28;20494;-83
2022/10/04 05:13:03;;;;;;;26.67;14.70;;;10.10;99.90;;;;;;4957050;28;20055;-83
2022/10/04 05:15:33;;;;;;;29.17;15.00;;;10.10;99.90;;;;;;4974340;28;20405;-81
2022/10/04 05:17:59;;;;;;;22.10;14.32;;;10.00;99.90;;;;;;4955815;28;20038;-83
2022/10/04 05:20:26;;;;;;;26.63;15.07;;;10.00;99.90;;;;;;4960431;28;20057;-82
2022/10/04 05:22:51;;;;;;;23.58;15.27;;;10.00;99.90;;;;;;4958783;28;20042;-82
2022/10/04 05:25:27;;;;;;;24.67;15.13;;;10.00;99.90;;;;;;4980419;28;20520;-83
2022/10/04 05:27:54;;;;;;;21.55;14.95;;;9.90;99.90;;;;;;4971043;28;20046;-85
2022/10/04 05:30:19;;;;;;;26.95;15.82;;;9.90;99.90;;;;;;4975236;28;20042;-84
2022/10/04 05:33:10;;;;;;;28.90;17.40;;;9.90;99.90;;;;;;4971522;28;20038;-84
2022/10/04 05:36:10;;;;;;;22.38;15.80;;;9.90;99.90;;;;;;4955168;28;20089;-82
2022/10/04 05:39:02;;;;;;;23.35;16.08;;;9.90;99.90;;;;;;4972406;28;20039;-84
2022/10/04 05:41:45;;;;;;;18.67;12.05;;;9.90;99.90;;;;;;4980819;28;20049;-83
2022/10/04 05:44:30;;;;;;;21.73;12.57;;;9.90;99.90;;;;;;4969917;28;20072;-84
2022/10/04 05:46:59;;;;;;;20.50;14.23;;;9.80;99.90;;;;;;4950949;28;20081;-84
2022/10/04 05:49:29;;;;;;;16.88;13.68;;;9.80;99.90;;;;;;4957637;28;20042;-83
2022/10/04 05:52:01;;;;;;;25.00;14.30;;;9.80;99.90;;;;;;4955374;28;20031;-83
2022/10/04 05:54:34;;;;;;;20.50;13.88;;;9.80;99.90;;;;;;4956322;28;20038;-81
2022/10/04 05:57:22;;;;;;;19.73;14.20;;;9.80;99.90;;;;;;4957581;28;20050;-82
2022/10/04 06:00:12;;;;;;;26.45;15.57;;;9.70;99.90;;;;;;4971856;28;20073;-82
2022/10/04 06:03:06;;;;;;;21.35;15.43;;;9.70;99.90;;;;;;4972596;28;20042;-81
2022/10/04 06:05:56;;;;;;;23.02;15.45;;;9.70;99.90;;;;;;4974109;28;20050;-82
2022/10/04 06:08:46;;;;;;;23.02;15.38;;;9.70;99.90;;;;;;4984573;28;20054;-84
2022/10/04 06:11:52;;;;;;;30.90;17.65;;;9.80;99.90;;;;;;4956494;28;20456;-82
2022/10/04 06:14:44;;;;;;;31.48;17.33;;;9.80;99.90;;;;;;4972285;28;20042;-81
2022/10/04 06:17:37;;;;;;;25.23;17.60;;;9.80;99.90;;;;;;4971839;28;20448;-84
2022/10/04 06:20:12;;;;;;;24.83;17.60;;;9.80;99.90;;;;;;4965969;28;20290;-84
2022/10/04 06:22:50;;;;;;;30.85;18.63;;;9.80;99.90;;;;;;4969704;28;20539;-83
2022/10/04 06:25:27;;;;;;;27.52;18.30;;;9.80;99.90;;;;;;4972941;28;20042;-82
2022/10/04 06:27:53;;;;;;;27.73;19.58;;;9.80;99.90;;;;;;4970359;28;20046;-82
2022/10/04 06:30:19;;;;;;;26.80;18.55;;;9.90;99.90;;;;;;4975921;28;20137;-84
2022/10/04 06:33:12;;;;;;;31.42;19.92;;;9.80;99.90;;;;;;4950732;28;20061;-82
2022/10/04 06:36:12;;;;;;;25.77;19.02;;;9.90;99.90;;;;;;4955222;28;20049;-83
2022/10/04 06:38:47;;;;;;;22.10;16.90;;;9.90;99.90;;;;;;4973971;28;20034;-83
2022/10/04 06:41:42;;;;;;;29.85;18.83;;;9.90;99.90;;;;;;4976818;28;20497;-83
2022/10/04 06:44:27;;;;;;;30.98;20.75;;;9.90;99.90;;;;;;4956295;28;20121;-82
2022/10/04 06:47:30;;;;;;;31.58;22.50;;;9.90;99.90;;;;;;4969370;28;20039;-83
2022/10/04 06:50:05;;;;;;;33.28;22.50;;;10.00;99.90;;;;;;4893916;28;20086;-82
2022/10/04 06:52:34;;;;;;;33.97;23.65;;;10.00;99.90;;;;;;4960420;28;20374;-82
2022/10/04 06:55:18;;;;;;;37.00;24.58;;;10.00;99.90;;;;;;4961196;28;20046;-82
2022/10/04 06:57:59;;;;;;;34.88;24.98;;;10.10;99.90;;;;;;4960776;28;20097;-82
2022/10/04 07:00:34;;;;;;;39.42;26.80;;;10.20;99.90;;;;;;4960957;28;20745;-82
2022/10/04 07:03:18;;;;;;;36.85;26.50;;;10.30;99.90;;;;;;4976557;28;20066;-82
2022/10/04 07:06:00;;;;;;;41.33;29.80;;;10.40;99.90;;;;;;4961374;28;20046;-82
2022/10/04 07:08:46;;;;;;;44.13;28.52;;;10.60;99.90;;;;;;4961252;28;20396;-83
2022/10/04 07:11:42;;;;;;;44.70;29.15;;;10.90;99.90;;;;;;4976609;28;20115;-83
2022/10/04 07:14:17;;;;;;;39.13;27.83;;;11.00;99.90;;;;;;4976939;28;20038;-82
2022/10/04 07:16:50;;;;;;;40.15;27.50;;;11.20;99.90;;;;;;4961124;28;20501;-82
2022/10/04 07:19:18;;;;;;;41.80;27.58;;;11.30;99.90;;;;;;4961312;28;20096;-84
2022/10/04 07:22:11;;;;;;;37.78;26.95;;;11.40;99.90;;;;;;4976418;28;20057;-82
2022/10/04 07:25:18;;;;;;;37.90;27.25;;;11.50;99.90;;;;;;4976766;28;20050;-83
2022/10/04 07:30:51;;;;;;;40.10;25.10;;;11.60;99.90;;;;;;4957681;28;20138;-83
2022/10/04 07:33:22;;;;;;;40.20;24.77;;;11.70;99.90;;;;;;4941675;28;20466;-83
2022/10/04 07:35:54;;;;;;;38.63;23.30;;;11.70;99.90;;;;;;4941553;28;20110;-84
2022/10/04 07:38:32;;;;;;;35.25;22.30;;;11.70;99.90;;;;;;4956985;28;20501;-82
2022/10/04 07:41:16;;;;;;;29.25;22.35;;;11.70;99.90;;;;;;4957142;28;20505;-83
2022/10/04 07:43:57;;;;;;;30.75;22.42;;;11.70;99.90;;;;;;4941601;28;20081;-83
2022/10/04 07:46:43;;;;;;;30.13;22.92;;;11.70;99.90;;;;;;4986413;28;20061;-82
2022/10/04 07:49:18;;;;;;;34.50;24.83;;;11.70;99.90;;;;;;4976608;28;20047;-83
2022/10/04 07:52:28;;;;;;;35.35;25.00;;;11.80;99.90;;;;;;4992181;28;20501;-83
2022/10/04 07:54:53;;;;;;;36.38;24.38;;;11.90;99.90;;;;;;4977208;28;20053;-83
2022/10/04 07:57:32;;;;;;;30.92;23.02;;;12.00;99.90;;;;;;4977394;28;20129;-83
2022/10/04 08:00:04;;;;;;;29.83;22.95;;;12.10;99.90;;;;;;4977191;28;20653;-83
2022/10/04 08:03:04;;;;;;;30.30;22.40;;;12.20;99.90;;;;;;4992433;28;20378;-82
2022/10/04 08:05:42;;;;;;;27.10;18.38;;;12.30;99.90;;;;;;4993200;28;20049;-83
2022/10/04 08:08:28;;;;;;;26.85;18.33;;;12.40;99.90;;;;;;4992668;28;20532;-82
2022/10/04 08:11:16;;;;;;;26.25;17.90;;;12.50;99.90;;;;;;4992550;28;20046;-81
2022/10/04 08:13:57;;;;;;;23.58;16.83;;;12.60;99.90;;;;;;4992125;28;20042;-82
2022/10/04 08:16:43;;;;;;;23.83;17.48;;;12.70;99.90;;;;;;4992912;28;20066;-82
2022/10/04 08:19:15;;;;;;;19.73;14.25;;;12.70;99.90;;;;;;4976786;28;20133;-82
2022/10/04 08:22:01;;;;;;;24.00;14.35;;;12.80;99.90;;;;;;4992013;28;20051;-82
2022/10/04 08:24:39;;;;;;;21.52;14.77;;;12.80;99.90;;;;;;4978047;28;20046;-82
2022/10/04 08:27:23;;;;;;;24.05;14.68;;;12.90;99.90;;;;;;4996200;28;20081;-81
2022/10/04 08:30:03;;;;;;;24.50;14.95;;;12.90;99.90;;;;;;4980402;28;20105;-82
2022/10/04 08:32:31;;;;;;;24.88;13.93;;;12.80;99.90;;;;;;4995637;28;20039;-82
2022/10/04 08:35:18;;;;;;;22.50;14.30;;;12.80;99.90;;;;;;4981802;28;20038;-82
2022/10/04 08:38:22;;;;;;;19.30;13.90;;;12.80;99.90;;;;;;4978968;28;20042;-82
2022/10/04 08:40:56;;;;;;;;;;;12.90;99.90;;;;;;4980029;28;20078;-83
2022/10/04 08:43:43;;;;;;;22.10;14.15;;;12.90;99.90;;;;;;4995808;28;19957;-82
2022/10/04 08:46:22;;;;;;;23.70;13.95;;;13.00;99.90;;;;;;4969157;28;20513;-82
2022/10/04 08:49:03;;;;;;;17.90;13.10;;;13.00;99.90;;;;;;4963665;28;20053;-82
2022/10/04 08:51:50;;;;;;;25.83;14.15;;;13.00;99.90;;;;;;4979023;28;20066;-82
2022/10/04 08:54:39;;;;;;;25.23;13.43;;;13.00;99.90;;;;;;4992010;28;20045;-81
2022/10/04 08:57:43;;;;;;;20.52;12.75;;;13.00;99.90;;;;;;4960471;28;20043;-81
2022/10/04 09:00:30;;;;;;;17.08;13.60;;;13.00;99.90;;;;;;4944169;28;20046;-82
2022/10/04 09:02:58;;;;;;;18.00;13.80;;;13.10;99.90;;;;;;4944326;28;20054;-82
2022/10/04 09:05:44;;;;;;;21.90;13.82;;;13.10;99.90;;;;;;4960042;28;20051;-78
2022/10/04 09:08:33;;;;;;;21.40;13.38;;;13.20;99.90;;;;;;4968145;28;20051;-82
2022/10/04 09:11:03;;;;;;;17.02;12.98;;;13.30;99.90;;;;;;4951039;28;20046;-82
2022/10/04 09:13:32;;;;;;;19.58;12.80;;;13.40;99.90;;;;;;4998086;28;20073;-82
2022/10/04 09:16:16;;;;;;;16.00;12.10;;;13.50;99.90;;;;;;4998416;28;20042;-83
2022/10/04 09:19:01;;;;;;;20.77;11.75;;;13.70;99.90;;;;;;4976064;28;20049;-83
2022/10/04 09:21:45;;;;;;;17.13;11.65;;;13.80;99.90;;;;;;4961653;28;20042;-83
2022/10/04 09:24:32;;;;;;;19.90;12.10;;;13.90;99.90;;;;;;4959339;28;20564;-84
2022/10/04 09:27:14;;;;;;;18.27;11.40;;;13.90;99.90;;;;;;4943557;28;20086;-83
2022/10/04 09:30:10;;;;;;;16.98;10.50;;;14.00;99.90;;;;;;4955351;28;20085;-84
2022/10/04 09:32:42;;;;;;;19.30;10.27;;;14.10;99.90;;;;;;4978277;28;20097;-83
2022/10/04 09:35:28;;;;;;;15.77;10.32;;;14.20;99.90;;;;;;4987394;28;20480;-83
2022/10/04 09:38:01;;;;;;;16.67;10.40;;;14.20;99.90;;;;;;4972574;28;20473;-83
2022/10/04 09:40:59;;;;;;;16.98;9.75;;;14.30;99.90;;;;;;4992653;28;20400;-82
2022/10/04 09:43:59;;;;;;;14.18;9.10;;;14.40;99.90;;;;;;4983277;28;20050;-83
2022/10/04 09:46:50;;;;;;;15.77;10.05;;;14.50;99.90;;;;;;4981904;28;20077;-82
2022/10/04 09:49:36;;;;;;;16.98;9.30;;;14.60;99.90;;;;;;4973942;28;20133;-84
2022/10/04 09:52:05;;;;;;;14.50;9.80;;;14.60;99.90;;;;;;4958169;28;20051;-82
2022/10/04 09:54:55;;;;;;;17.00;9.52;;;14.70;99.90;;;;;;4975233;28;20078;-82
2022/10/04 09:57:37;;;;;;;15.88;9.15;;;14.70;99.90;;;;;;4962061;28;20105;-82
2022/10/04 10:00:22;;;;;;;17.80;9.60;;;14.80;99.90;;;;;;4962725;28;20050;-82
2022/10/04 10:03:32;;;;;;;14.82;9.55;;;14.90;99.90;;;;;;4961769;28;20053;-82
2022/10/04 10:06:23;;;;;;;17.17;9.13;;;15.00;99.90;;;;;;4977964;28;20050;-83
2022/10/04 10:08:58;;;;;;;18.73;10.07;;;15.10;99.90;;;;;;4961552;28;20038;-82
2022/10/04 10:14:52;;;;;;;13.40;9.73;;;15.20;99.90;;;;;;4987429;28;20046;-82
2022/10/04 10:17:35;;;;;;;14.82;9.13;;;15.40;99.90;;;;;;4977981;28;20046;-82
2022/10/04 10:20:25;;;;;;;13.32;7.63;;;15.40;99.90;;;;;;4961279;28;20081;-83
2022/10/04 10:23:22;;;;;;;13.25;8.27;;;15.50;99.90;;;;;;4975114;28;20041;-81
2022/10/04 10:26:43;;;;;;;12.45;7.22;;;15.70;99.90;;;;;;4942696;28;20105;-82
2022/10/04 10:29:28;;;;;;;11.77;7.57;;;15.80;99.90;;;;;;4903260;29;20054;-82
2022/10/04 10:32:19;;;;;;;14.27;7.75;;;15.80;99.90;;;;;;4916351;28;20045;-80
2022/10/04 10:35:17;;;;;;;13.65;7.80;;;16.00;99.90;;;;;;4992700;28;20043;-82
2022/10/04 10:38:11;;;;;;;15.88;7.55;;;16.20;99.90;;;;;;4992875;28;20046;-80
2022/10/04 10:40:59;;;;;;;12.32;7.63;;;16.30;99.90;;;;;;4892128;28;20228;-82
2022/10/04 10:44:03;;;;;;;12.90;7.32;;;16.50;99.90;;;;;;4967557;28;20420;-81
2022/10/04 10:47:00;;;;;;;11.88;7.38;;;16.60;99.90;;;;;;4976983;28;20080;-82
2022/10/04 10:49:59;;;;;;;13.32;7.25;;;16.80;99.90;;;;;;4977371;28;20046;-80
2022/10/04 10:52:53;;;;;;;13.50;6.97;;;17.00;99.90;;;;;;4955666;28;20122;-78
2022/10/04 10:55:29;;;;;;;14.52;6.53;;;17.10;99.90;;;;;;4956855;28;20053;-78
2022/10/04 10:58:26;;;;;;;12.57;6.47;;;17.20;99.90;;;;;;4956377;28;20050;-79
2022/10/04 11:01:20;;;;;;;13.95;6.63;;;17.40;99.90;;;;;;4981060;28;20052;-80
2022/10/04 11:04:01;;;;;;;16.05;5.88;;;17.60;99.90;;;;;;4992023;28;20046;-80
2022/10/04 11:06:34;;;;;;;12.48;6.05;;;17.80;99.90;;;;;;4984691;28;20137;-79
2022/10/04 11:09:30;;;;;;;9.63;5.32;;;17.90;99.90;;;;;;4980353;28;20061;-80
2022/10/04 11:12:28;;;;;;;9.50;5.32;;;18.20;99.90;;;;;;4975100;28;20133;-77
2022/10/04 11:15:08;;;;;;;10.98;6.05;;;18.30;99.90;;;;;;4957163;28;20081;-78
2022/10/04 11:17:56;;;;;;;9.70;5.80;;;18.50;99.90;;;;;;4975361;28;20046;-79
2022/10/04 11:20:43;;;;;;;12.30;5.90;;;18.60;99.90;;;;;;4959314;28;20110;-77
2022/10/04 11:23:42;;;;;;;9.07;6.05;;;18.80;99.90;;;;;;4974768;28;20401;-78
2022/10/04 11:26:34;;;;;;;10.07;5.63;;;19.00;99.90;;;;;;4963547;28;20133;-79
2022/10/04 11:29:19;;;;;;;11.37;5.87;;;19.00;99.90;;;;;;4991600;28;20381;-79
2022/10/04 11:32:13;;;;;;;13.32;6.25;;;19.20;99.90;;;;;;4961529;28;20059;-78
2022/10/04 11:34:58;;;;;;;11.95;6.43;;;19.40;99.90;;;;;;4962560;28;20065;-78
2022/10/04 11:37:46;;;;;;;8.68;5.80;;;19.60;99.90;;;;;;4974648;28;20444;-78
2022/10/04 11:40:39;;;;;;;9.75;5.50;;;19.70;99.90;;;;;;4991083;28;20060;-78
2022/10/04 11:43:13;;;;;;;9.20;6.10;;;19.70;99.90;;;;;;4990730;28;20050;-77
2022/10/04 11:46:09;;;;;;;10.52;5.80;;;19.80;99.90;;;;;;4967006;28;20502;-78
2022/10/04 11:48:53;;;;;;;10.52;6.10;;;19.80;99.90;;;;;;4982625;28;20137;-77
2022/10/04 11:51:46;;;;;;;10.43;6.22;;;19.90;99.90;;;;;;4990950;28;20461;-79
2022/10/04 11:54:29;;;;;;;11.50;6.07;;;20.00;99.90;;;;;;4988604;28;20047;-79
2022/10/04 11:57:15;;;;;;;9.00;5.85;;;20.20;99.90;;;;;;4976106;28;20085;-79
2022/10/04 11:59:53;;;;;;;11.63;5.72;;;20.10;99.90;;;;;;4980309;28;20052;-77
2022/10/04 12:03:16;;;;;;;11.32;5.97;;;20.10;99.90;;;;;;4974915;28;20142;-78
2022/10/04 12:06:22;;;;;;;11.75;5.60;;;20.10;99.90;;;;;;4978319;28;20078;-80
2022/10/04 12:08:50;;;;;;;11.93;6.18;;;20.30;99.90;;;;;;4944365;28;20049;-81
2022/10/04 12:15:09;;;;;;;8.68;5.70;;;20.20;99.90;;;;;;4988893;28;20057;-82
2022/10/04 12:18:05;;;;;;;8.70;5.60;;;20.20;99.90;;;;;;4960755;28;20114;-78
2022/10/04 12:20:42;;;;;;;12.65;5.43;;;20.10;99.90;;;;;;4947174;28;20500;-80
2022/10/04 12:23:40;;;;;;;10.13;5.25;;;20.20;99.90;;;;;;4968125;28;20523;-81
2022/10/04 12:26:13;;;;;;;9.82;5.47;;;20.20;99.90;;;;;;4956049;28;20062;-82
2022/10/04 12:29:12;;;;;;;8.02;5.25;;;20.20;99.90;;;;;;4963365;28;20400;-82
2022/10/04 12:31:55;;;;;;;10.40;5.88;;;20.50;99.90;;;;;;4973116;28;20046;-82
2022/10/04 12:35:05;;;;;;;10.43;5.93;;;20.30;99.90;;;;;;4980016;28;20192;-83
2022/10/04 12:38:06;;;;;;;12.70;6.03;;;20.40;99.90;;;;;;4980442;28;20046;-84
2022/10/04 12:41:10;;;;;;;11.70;6.05;;;20.60;99.90;;;;;;4977904;28;20049;-87
2022/10/04 12:44:06;;;;;;;7.72;5.85;;;21.00;99.90;;;;;;4963822;28;20427;-86
2022/10/04 12:47:10;;;;;;;11.85;5.80;;;21.10;99.90;;;;;;4964840;28;20111;-84
2022/10/04 12:49:53;;;;;;;12.20;5.60;;;21.10;99.70;;;;;;4980246;28;20080;-85
2022/10/04 12:52:26;;;;;;;13.05;5.90;;;21.20;99.50;;;;;;4978124;28;20049;-84
2022/10/04 12:55:24;;;;;;;10.02;6.10;;;21.20;98.60;;;;;;4978200;28;20101;-85
2022/10/04 12:57:59;;;;;;;8.40;5.20;;;21.20;98.90;;;;;;4962460;28;20046;-85
2022/10/04 13:00:28;;;;;;;13.85;5.65;;;21.30;99.90;;;;;;4963630;28;20050;-85
2022/10/04 13:03:10;;;;;;;9.82;5.50;;;21.40;99.50;;;;;;4979441;28;20045;-84
2022/10/04 13:05:58;;;;;;;11.07;5.65;;;21.30;99.60;;;;;;4963991;28;20050;-85
2022/10/04 13:08:52;;;;;;;11.15;5.60;;;21.30;99.70;;;;;;4963601;28;20053;-85
2022/10/04 13:11:35;;;;;;;10.00;5.90;;;21.30;99.90;;;;;;4979915;28;20456;-85
2022/10/04 13:14:15;;;;;;;;;;;21.40;99.70;;;;;;4963974;28;20046;-84
2022/10/04 13:17:02;;;;;;;10.13;5.60;;;21.50;98.40;;;;;;4965403;28;19926;-84
2022/10/04 13:19:59;;;;;;;11.18;5.47;;;21.60;98.50;;;;;;4986517;28;20046;-83
2022/10/04 13:22:46;;;;;;;11.43;6.15;;;21.80;99.90;;;;;;4988585;28;20057;-83
2022/10/04 13:25:25;;;;;;;12.23;6.00;;;21.80;98.30;;;;;;4980306;28;20053;-84
2022/10/04 13:28:29;;;;;;;10.90;5.47;;;21.50;98.50;;;;;;4995538;28;20471;-85
2022/10/04 13:31:09;;;;;;;10.60;6.05;;;21.30;98.30;;;;;;4994941;28;20054;-85
2022/10/04 13:33:44;;;;;;;14.10;6.60;;;21.10;97.70;;;;;;4962797;28;20054;-84
2022/10/04 13:36:32;;;;;;;11.57;5.72;;;20.70;98.40;;;;;;4974019;28;20074;-85
2022/10/04 13:39:25;;;;;;;12.68;6.20;;;20.40;99.10;;;;;;4995068;28;20110;-85
2022/10/04 13:42:02;;;;;;;11.07;5.80;;;20.40;99.90;;;;;;4978282;28;20512;-85
2022/10/04 13:44:53;;;;;;;9.65;6.10;;;20.70;99.90;;;;;;4978531;28;20153;-85
2022/10/04 13:47:57;;;;;;;11.00;5.90;;;21.10;99.50;;;;;;4980007;28;20555;-85
2022/10/04 13:50:50;;;;;;;11.20;5.55;;;21.60;99.70;;;;;;4978663;28;20109;-85
2022/10/04 13:56:39;;;;;;;10.77;4.82;;;21.80;98.60;;;;;;5011544;28;20043;-84
2022/10/04 13:59:11;;;;;;;13.57;5.20;;;21.90;98.40;;;;;;4979670;28;20046;-85
2022/10/04 14:01:54;;;;;;;16.70;5.50;;;21.90;98.10;;;;;;4979073;28;20046;-85